createdAt,value
2017-06-24T00:00:42.147Z,20.66
2017-06-24T00:01:38.401Z,20.63
2017-06-24T00:02:34.626Z,20.60
2017-06-24T00:03:30.859Z,20.57
2017-06-24T00:04:27.093Z,20.54
2017-06-24T00:05:23.322Z,20.52
2017-06-24T00:06:19.558Z,20.50
2017-06-24T00:07:15.807Z,20.48
2017-06-24T00:08:12.050Z,20.45
2017-06-24T00:09:08.278Z,20.43
2017-06-24T00:10:04.510Z,20.41
2017-06-24T00:11:00.747Z,20.37
2017-06-24T00:11:56.986Z,20.35
2017-06-24T00:12:53.242Z,20.32
2017-06-24T00:13:49.481Z,20.31
2017-06-24T00:14:45.702Z,20.28
2017-06-24T00:15:41.939Z,20.25
2017-06-24T00:16:38.175Z,20.22
2017-06-24T00:17:34.412Z,20.21
2017-06-24T00:18:30.654Z,20.19
2017-06-24T00:19:26.890Z,20.17
2017-06-24T00:20:23.130Z,20.14
2017-06-24T00:21:19.369Z,20.12
2017-06-24T00:22:15.598Z,20.11
2017-06-24T00:23:11.830Z,20.07
2017-06-24T00:24:08.077Z,20.05
2017-06-24T00:25:04.302Z,20.03
2017-06-24T00:26:00.536Z,20.00
2017-06-24T00:26:56.767Z,19.99
2017-06-24T00:27:52.998Z,19.96
2017-06-24T00:28:49.250Z,19.94
2017-06-24T00:29:45.490Z,19.92
2017-06-24T00:30:41.714Z,19.88
2017-06-24T00:31:37.955Z,19.86
2017-06-24T00:32:34.195Z,19.85
2017-06-24T00:33:30.442Z,19.82
2017-06-24T00:34:26.710Z,19.81
2017-06-24T00:35:22.941Z,19.78
2017-06-24T00:36:19.194Z,19.77
2017-06-24T00:37:15.430Z,19.75
2017-06-24T00:38:11.654Z,19.73
2017-06-24T00:39:07.881Z,19.73
2017-06-24T00:40:04.127Z,19.71
2017-06-24T00:41:00.361Z,19.69
2017-06-24T00:41:56.590Z,19.67
2017-06-24T00:42:52.823Z,19.65
2017-06-24T00:43:49.050Z,19.64
2017-06-24T00:44:45.286Z,19.62
2017-06-24T00:45:41.538Z,19.60
2017-06-24T00:46:37.783Z,19.59
2017-06-24T00:47:34.014Z,19.57
2017-06-24T00:48:30.246Z,19.56
2017-06-24T00:49:26.474Z,19.55
2017-06-24T00:50:22.697Z,19.52
2017-06-24T00:51:18.946Z,19.52
2017-06-24T00:52:15.246Z,19.50
2017-06-24T00:53:11.482Z,19.49
2017-06-24T00:54:07.709Z,19.47
2017-06-24T00:55:03.941Z,19.46
2017-06-24T00:56:00.186Z,19.43
2017-06-24T00:56:56.419Z,19.43
2017-06-24T00:57:52.654Z,19.40
2017-06-24T00:58:48.883Z,19.40
2017-06-24T00:59:45.118Z,19.38
2017-06-24T01:00:41.366Z,19.36
2017-06-24T01:01:37.602Z,19.34
2017-06-24T01:02:33.826Z,19.31
2017-06-24T01:03:30.050Z,19.30
2017-06-24T01:04:28.537Z,19.28
2017-06-24T01:05:24.838Z,19.26
2017-06-24T01:06:21.130Z,19.23
2017-06-24T01:07:17.375Z,19.21
2017-06-24T01:08:13.630Z,19.20
2017-06-24T01:09:09.887Z,19.17
2017-06-24T01:10:06.134Z,19.17
2017-06-24T01:11:02.380Z,19.15
2017-06-24T01:11:58.667Z,19.14
2017-06-24T01:12:54.922Z,19.12
2017-06-24T01:13:51.174Z,19.11
2017-06-24T01:14:47.418Z,19.10
2017-06-24T01:15:43.662Z,19.10
2017-06-24T01:16:39.906Z,19.09
2017-06-24T01:17:36.158Z,19.08
2017-06-24T01:18:32.402Z,19.07
2017-06-24T01:19:28.646Z,19.06
2017-06-24T01:20:24.892Z,19.05
2017-06-24T01:21:21.134Z,19.05
2017-06-24T01:22:17.410Z,19.03
2017-06-24T01:23:13.662Z,19.02
2017-06-24T01:24:09.902Z,19.01
2017-06-24T01:25:06.162Z,18.99
2017-06-24T01:26:02.406Z,18.98
2017-06-24T01:26:58.662Z,18.97
2017-06-24T01:27:54.934Z,18.94
2017-06-24T01:28:51.198Z,18.91
2017-06-24T01:29:47.442Z,18.89
2017-06-24T01:30:43.698Z,18.89
2017-06-24T01:31:39.954Z,18.86
2017-06-24T01:32:36.225Z,18.84
2017-06-24T01:33:32.486Z,18.81
2017-06-24T01:34:28.734Z,18.79
2017-06-24T01:35:25.063Z,18.78
2017-06-24T01:36:21.312Z,18.76
2017-06-24T01:37:17.566Z,18.74
2017-06-24T01:38:13.850Z,18.72
2017-06-24T01:39:10.098Z,18.71
2017-06-24T01:40:06.415Z,18.69
2017-06-24T01:41:02.671Z,18.68
2017-06-24T01:41:58.939Z,18.66
2017-06-24T01:42:55.201Z,18.64
2017-06-24T01:43:51.462Z,18.63
2017-06-24T01:44:47.706Z,18.63
2017-06-24T01:45:43.958Z,18.60
2017-06-24T01:46:40.202Z,18.59
2017-06-24T01:47:36.450Z,18.58
2017-06-24T01:48:32.694Z,18.56
2017-06-24T01:49:28.964Z,18.55
2017-06-24T01:50:25.218Z,18.53
2017-06-24T01:51:21.467Z,18.52
2017-06-24T01:52:17.714Z,18.52
2017-06-24T01:53:13.965Z,18.50
2017-06-24T01:54:10.210Z,18.48
2017-06-24T01:55:06.473Z,18.46
2017-06-24T01:56:02.725Z,18.44
2017-06-24T01:56:58.966Z,18.42
2017-06-24T01:57:55.206Z,18.42
2017-06-24T01:58:51.457Z,18.39
2017-06-24T01:59:47.715Z,18.39
2017-06-24T02:00:43.967Z,18.36
2017-06-24T02:01:40.214Z,18.36
2017-06-24T02:02:36.489Z,18.35
2017-06-24T02:03:32.735Z,18.33
2017-06-24T02:04:28.986Z,18.33
2017-06-24T02:05:25.303Z,18.30
2017-06-24T02:06:21.554Z,18.28
2017-06-24T02:07:17.803Z,18.26
2017-06-24T02:08:14.042Z,18.27
2017-06-24T02:09:10.281Z,18.25
2017-06-24T02:10:06.526Z,18.22
2017-06-24T02:11:02.782Z,18.22
2017-06-24T02:11:59.034Z,18.20
2017-06-24T02:12:55.278Z,18.18
2017-06-24T02:13:51.522Z,18.17
2017-06-24T02:14:47.770Z,18.15
2017-06-24T02:15:44.030Z,18.12
2017-06-24T02:16:40.274Z,18.11
2017-06-24T02:17:36.526Z,18.09
2017-06-24T02:18:32.779Z,18.08
2017-06-24T02:19:29.031Z,18.06
2017-06-24T02:20:25.282Z,18.06
2017-06-24T02:21:21.547Z,18.04
2017-06-24T02:22:17.794Z,18.03
2017-06-24T02:23:14.029Z,18.02
2017-06-24T02:24:10.285Z,18.00
2017-06-24T02:25:06.533Z,17.98
2017-06-24T02:26:02.779Z,17.97
2017-06-24T02:26:59.037Z,17.94
2017-06-24T02:27:55.290Z,17.92
2017-06-24T02:28:51.542Z,17.91
2017-06-24T02:29:47.782Z,17.89
2017-06-24T02:30:44.034Z,17.88
2017-06-24T02:31:40.290Z,17.87
2017-06-24T02:32:36.538Z,17.85
2017-06-24T02:33:32.789Z,17.82
2017-06-24T02:34:29.035Z,17.81
2017-06-24T02:35:25.293Z,17.79
2017-06-24T02:36:21.533Z,17.79
2017-06-24T02:37:17.815Z,17.78
2017-06-24T02:38:14.078Z,17.76
2017-06-24T02:39:10.322Z,17.74
2017-06-24T02:40:06.567Z,17.72
2017-06-24T02:41:02.810Z,17.70
2017-06-24T02:41:59.066Z,17.69
2017-06-24T02:42:55.347Z,17.68
2017-06-24T02:43:51.604Z,17.66
2017-06-24T02:44:47.890Z,17.64
2017-06-24T02:45:44.162Z,17.62
2017-06-24T02:46:40.399Z,17.60
2017-06-24T02:47:36.653Z,17.59
2017-06-24T02:48:32.918Z,17.58
2017-06-24T02:49:29.162Z,17.57
2017-06-24T02:50:25.401Z,17.56
2017-06-24T02:51:21.654Z,17.54
2017-06-24T02:52:17.911Z,17.52
2017-06-24T02:53:14.154Z,17.51
2017-06-24T02:54:10.446Z,17.48
2017-06-24T02:55:06.702Z,17.48
2017-06-24T02:56:02.955Z,17.47
2017-06-24T02:56:59.203Z,17.46
2017-06-24T02:57:55.462Z,17.46
2017-06-24T02:58:51.718Z,17.42
2017-06-24T02:59:47.985Z,17.42
2017-06-24T03:00:44.226Z,17.41
2017-06-24T03:01:40.462Z,17.40
2017-06-24T03:02:36.717Z,17.37
2017-06-24T03:03:32.973Z,17.36
2017-06-24T03:04:29.254Z,17.35
2017-06-24T03:05:25.498Z,17.33
2017-06-24T03:06:21.738Z,17.33
2017-06-24T03:07:17.977Z,17.31
2017-06-24T03:08:14.226Z,17.30
2017-06-24T03:09:10.470Z,17.29
2017-06-24T03:10:06.738Z,17.28
2017-06-24T03:11:02.979Z,17.27
2017-06-24T03:11:59.218Z,17.25
2017-06-24T03:12:55.457Z,17.24
2017-06-24T03:13:51.708Z,17.23
2017-06-24T03:14:48.386Z,17.23
2017-06-24T03:15:44.642Z,17.20
2017-06-24T03:16:40.886Z,17.20
2017-06-24T03:17:37.133Z,17.19
2017-06-24T03:18:33.378Z,17.18
2017-06-24T03:19:29.616Z,17.16
2017-06-24T03:20:25.858Z,17.15
2017-06-24T03:21:22.114Z,17.15
2017-06-24T03:22:18.373Z,17.13
2017-06-24T03:23:14.614Z,17.11
2017-06-24T03:24:10.846Z,17.11
2017-06-24T03:25:07.078Z,17.09
2017-06-24T03:26:03.313Z,17.07
2017-06-24T03:26:59.581Z,17.05
2017-06-24T03:27:55.826Z,17.06
2017-06-24T03:28:52.067Z,17.04
2017-06-24T03:29:48.382Z,17.03
2017-06-24T03:30:44.642Z,17.02
2017-06-24T03:31:40.897Z,17.02
2017-06-24T03:32:37.134Z,17.00
2017-06-24T03:33:33.373Z,16.99
2017-06-24T03:34:29.635Z,16.98
2017-06-24T03:35:25.865Z,16.97
2017-06-24T03:36:22.106Z,16.95
2017-06-24T03:37:18.378Z,16.94
2017-06-24T03:38:14.626Z,16.93
2017-06-24T03:39:10.862Z,16.93
2017-06-24T03:40:07.105Z,16.91
2017-06-24T03:41:03.346Z,16.91
2017-06-24T03:41:59.585Z,16.90
2017-06-24T03:42:55.835Z,16.89
2017-06-24T03:43:52.086Z,16.89
2017-06-24T03:44:48.319Z,16.89
2017-06-24T03:45:44.566Z,16.87
2017-06-24T03:46:40.809Z,16.85
2017-06-24T03:47:37.058Z,16.87
2017-06-24T03:48:33.316Z,16.86
2017-06-24T03:49:29.562Z,16.85
2017-06-24T03:50:25.835Z,16.85
2017-06-24T03:51:22.102Z,16.85
2017-06-24T03:52:23.322Z,16.84
2017-06-24T03:53:19.577Z,16.84
2017-06-24T03:54:15.822Z,16.83
2017-06-24T03:55:12.070Z,16.83
2017-06-24T03:56:08.321Z,16.82
2017-06-24T03:57:04.569Z,16.83
2017-06-24T03:58:00.969Z,16.82
2017-06-24T03:58:57.226Z,16.81
2017-06-24T03:59:53.470Z,16.81
2017-06-24T04:00:49.731Z,16.80
2017-06-24T04:01:47.280Z,16.81
2017-06-24T04:02:43.518Z,16.81
2017-06-24T04:03:39.769Z,16.80
2017-06-24T04:04:36.055Z,16.80
2017-06-24T04:05:32.308Z,16.79
2017-06-24T04:06:28.554Z,16.80
2017-06-24T04:07:24.790Z,16.80
2017-06-24T04:08:21.030Z,16.80
2017-06-24T04:09:17.262Z,16.81
2017-06-24T04:10:13.518Z,16.80
2017-06-24T04:11:09.762Z,16.80
2017-06-24T04:12:06.005Z,16.81
2017-06-24T04:13:02.262Z,16.81
2017-06-24T04:13:58.498Z,16.81
2017-06-24T04:14:54.755Z,16.82
2017-06-24T04:15:51.002Z,16.83
2017-06-24T04:16:47.257Z,16.83
2017-06-24T04:17:43.514Z,16.83
2017-06-24T04:18:39.754Z,16.84
2017-06-24T04:19:36.006Z,16.85
2017-06-24T04:20:32.266Z,16.86
2017-06-24T04:21:28.518Z,16.86
2017-06-24T04:22:24.770Z,16.88
2017-06-24T04:23:21.021Z,16.89
2017-06-24T04:24:17.273Z,16.90
2017-06-24T04:25:13.523Z,16.92
2017-06-24T04:26:09.862Z,16.93
2017-06-24T04:27:06.159Z,16.93
2017-06-24T04:28:02.450Z,16.94
2017-06-24T04:28:58.742Z,16.96
2017-06-24T04:29:55.042Z,16.96
2017-06-24T04:30:51.286Z,16.98
2017-06-24T04:31:47.570Z,16.99
2017-06-24T04:32:43.814Z,17.00
2017-06-24T04:33:40.066Z,17.04
2017-06-24T04:34:36.315Z,17.05
2017-06-24T04:35:32.631Z,17.07
2017-06-24T04:36:28.930Z,17.10
2017-06-24T04:37:25.195Z,17.12
2017-06-24T04:38:21.446Z,17.14
2017-06-24T04:39:17.706Z,17.17
2017-06-24T04:40:13.965Z,17.19
2017-06-24T04:41:10.227Z,17.21
2017-06-24T04:42:06.505Z,17.23
2017-06-24T04:43:02.746Z,17.26
2017-06-24T04:43:58.998Z,17.28
2017-06-24T04:44:55.242Z,17.30
2017-06-24T04:45:51.489Z,17.32
2017-06-24T04:46:47.734Z,17.37
2017-06-24T04:47:43.990Z,17.37
2017-06-24T04:48:40.230Z,17.41
2017-06-24T04:49:36.478Z,17.42
2017-06-24T04:50:32.723Z,17.45
2017-06-24T04:51:28.966Z,17.47
2017-06-24T04:52:25.223Z,17.51
2017-06-24T04:53:21.484Z,17.54
2017-06-24T04:54:17.742Z,17.57
2017-06-24T04:55:13.981Z,17.62
2017-06-24T04:56:10.225Z,17.65
2017-06-24T04:57:06.474Z,17.69
2017-06-24T04:58:02.718Z,17.74
2017-06-24T04:58:58.982Z,17.78
2017-06-24T04:59:55.230Z,17.82
2017-06-24T05:00:51.478Z,17.87
2017-06-24T05:01:47.730Z,17.93
2017-06-24T05:02:44.897Z,17.97
2017-06-24T05:03:41.181Z,18.03
2017-06-24T05:04:37.433Z,18.07
2017-06-24T05:05:33.687Z,18.12
2017-06-24T05:06:29.972Z,18.17
2017-06-24T05:07:26.230Z,18.22
2017-06-24T05:08:22.527Z,18.26
2017-06-24T05:09:18.802Z,18.30
2017-06-24T05:10:15.063Z,18.36
2017-06-24T05:11:11.314Z,18.40
2017-06-24T05:12:07.554Z,18.44
2017-06-24T05:13:03.798Z,18.50
2017-06-24T05:14:00.055Z,18.54
2017-06-24T05:14:56.518Z,18.57
2017-06-24T05:15:52.770Z,18.61
2017-06-24T05:16:49.015Z,18.66
2017-06-24T05:17:45.290Z,18.70
2017-06-24T05:18:41.554Z,18.74
2017-06-24T05:19:37.818Z,18.77
2017-06-24T05:20:34.070Z,18.81
2017-06-24T05:21:30.327Z,18.85
2017-06-24T05:22:26.610Z,18.88
2017-06-24T05:23:22.884Z,18.92
2017-06-24T05:24:19.146Z,18.93
2017-06-24T05:25:15.402Z,18.97
2017-06-24T05:26:11.646Z,18.99
2017-06-24T05:27:07.896Z,19.03
2017-06-24T05:28:04.170Z,19.05
2017-06-24T05:29:00.419Z,19.08
2017-06-24T05:29:56.690Z,19.10
2017-06-24T05:30:52.954Z,19.11
2017-06-24T05:31:49.204Z,19.15
2017-06-24T05:32:45.454Z,19.17
2017-06-24T05:33:41.694Z,19.20
2017-06-24T05:34:37.974Z,19.22
2017-06-24T05:35:34.248Z,19.26
2017-06-24T05:36:30.582Z,19.27
2017-06-24T05:37:26.843Z,19.30
2017-06-24T05:38:23.098Z,19.32
2017-06-24T05:39:19.351Z,19.34
2017-06-24T05:40:15.611Z,19.36
2017-06-24T05:41:11.878Z,19.38
2017-06-24T05:42:08.149Z,19.40
2017-06-24T05:43:04.410Z,19.40
2017-06-24T05:44:00.695Z,19.42
2017-06-24T05:44:56.941Z,19.46
2017-06-24T05:45:53.201Z,19.45
2017-06-24T05:46:49.470Z,19.48
2017-06-24T05:47:45.742Z,19.49
2017-06-24T05:48:42.030Z,19.50
2017-06-24T05:49:38.274Z,19.52
2017-06-24T05:50:34.565Z,19.54
2017-06-24T05:51:30.849Z,19.54
2017-06-24T05:52:27.101Z,19.56
2017-06-24T05:53:23.355Z,19.58
2017-06-24T05:54:19.621Z,19.61
2017-06-24T05:55:15.870Z,19.63
2017-06-24T05:56:12.142Z,19.65
2017-06-24T05:57:08.402Z,19.68
2017-06-24T05:58:04.650Z,19.70
2017-06-24T05:59:00.917Z,19.73
2017-06-24T05:59:57.210Z,19.77
2017-06-24T06:00:53.479Z,19.79
2017-06-24T06:01:49.750Z,19.82
2017-06-24T06:02:46.022Z,19.86
2017-06-24T06:03:42.278Z,19.89
2017-06-24T06:04:38.533Z,19.91
2017-06-24T06:05:34.807Z,19.95
2017-06-24T06:06:31.050Z,19.98
2017-06-24T06:07:27.309Z,20.01
2017-06-24T06:08:23.570Z,20.04
2017-06-24T06:09:19.846Z,20.05
2017-06-24T06:10:16.109Z,20.07
2017-06-24T06:11:12.350Z,20.09
2017-06-24T06:12:08.589Z,20.12
2017-06-24T06:13:04.874Z,20.12
2017-06-24T06:14:01.125Z,20.15
2017-06-24T06:14:57.390Z,20.17
2017-06-24T06:15:53.640Z,20.19
2017-06-24T06:16:49.902Z,20.19
2017-06-24T06:17:46.150Z,20.20
2017-06-24T06:18:42.417Z,20.21
2017-06-24T06:19:38.677Z,20.21
2017-06-24T06:20:34.945Z,20.22
2017-06-24T06:21:31.194Z,20.22
2017-06-24T06:22:27.460Z,20.24
2017-06-24T06:23:23.726Z,20.23
2017-06-24T06:24:19.974Z,20.24
2017-06-24T06:25:16.227Z,20.25
2017-06-24T06:26:12.470Z,20.27
2017-06-24T06:27:08.730Z,20.28
2017-06-24T06:28:04.998Z,20.29
2017-06-24T06:29:01.270Z,20.29
2017-06-24T06:29:57.538Z,20.30
2017-06-24T06:30:53.796Z,20.30
2017-06-24T06:31:50.050Z,20.31
2017-06-24T06:32:46.298Z,20.33
2017-06-24T06:33:42.742Z,20.33
2017-06-24T06:34:39.008Z,20.35
2017-06-24T06:35:35.254Z,20.36
2017-06-24T06:36:31.493Z,20.36
2017-06-24T06:37:27.738Z,20.36
2017-06-24T06:38:24.006Z,20.37
2017-06-24T06:39:20.267Z,20.39
2017-06-24T06:40:17.143Z,20.39
2017-06-24T06:41:13.382Z,20.38
2017-06-24T06:42:09.646Z,20.38
2017-06-24T06:43:05.895Z,20.38
2017-06-24T06:44:02.142Z,20.38
2017-06-24T06:44:58.413Z,20.39
2017-06-24T06:45:54.670Z,20.41
2017-06-24T06:46:50.936Z,20.43
2017-06-24T06:47:47.211Z,20.45
2017-06-24T06:48:43.454Z,20.47
2017-06-24T06:49:39.718Z,20.49
2017-06-24T06:50:36.006Z,20.51
2017-06-24T06:51:32.266Z,20.50
2017-06-24T06:52:28.510Z,20.50
2017-06-24T06:53:24.866Z,20.51
2017-06-24T06:54:21.167Z,20.52
2017-06-24T06:55:17.462Z,20.50
2017-06-24T06:56:13.706Z,20.51
2017-06-24T06:57:09.953Z,20.49
2017-06-24T06:58:06.194Z,20.48
2017-06-24T06:59:02.443Z,20.48
2017-06-24T06:59:58.832Z,20.47
2017-06-24T07:00:55.080Z,20.46
2017-06-24T07:01:51.342Z,20.46
2017-06-24T07:02:47.599Z,20.45
2017-06-24T07:03:43.844Z,20.45
2017-06-24T07:04:40.266Z,20.46
2017-06-24T07:05:36.637Z,20.46
2017-06-24T07:06:32.910Z,20.48
2017-06-24T07:07:29.338Z,20.47
2017-06-24T07:08:25.577Z,20.47
2017-06-24T07:09:21.826Z,20.50
2017-06-24T07:10:18.274Z,20.53
2017-06-24T07:11:14.556Z,20.53
2017-06-24T07:12:10.872Z,20.55
2017-06-24T07:13:08.053Z,20.55
2017-06-24T07:14:04.294Z,20.56
2017-06-24T07:15:00.984Z,20.58
2017-06-24T07:15:57.633Z,20.60
2017-06-24T07:16:53.910Z,20.63
2017-06-24T07:17:50.190Z,20.65
2017-06-24T07:18:46.437Z,20.65
2017-06-24T07:19:42.731Z,20.68
2017-06-24T07:20:39.026Z,20.69
2017-06-24T07:21:35.274Z,20.71
2017-06-24T07:22:31.534Z,20.72
2017-06-24T07:23:27.775Z,20.73
2017-06-24T07:24:24.026Z,20.73
2017-06-24T07:25:20.274Z,20.74
2017-06-24T07:26:16.928Z,20.72
2017-06-24T07:27:13.195Z,20.71
2017-06-24T07:28:09.457Z,20.71
2017-06-24T07:29:05.710Z,20.69
2017-06-24T07:30:02.378Z,20.69
2017-06-24T07:30:59.182Z,20.69
2017-06-24T07:31:55.527Z,20.72
2017-06-24T07:32:51.786Z,20.73
2017-06-24T07:33:48.070Z,20.72
2017-06-24T07:34:44.325Z,20.72
2017-06-24T07:35:40.582Z,20.72
2017-06-24T07:36:36.864Z,20.74
2017-06-24T07:37:33.241Z,20.75
2017-06-24T07:38:29.494Z,20.74
2017-06-24T07:39:25.758Z,20.73
2017-06-24T07:40:22.008Z,20.74
2017-06-24T07:41:18.254Z,20.72
2017-06-24T07:42:14.498Z,20.71
2017-06-24T07:43:10.801Z,20.71
2017-06-24T07:44:07.071Z,20.71
2017-06-24T07:45:03.326Z,20.71
2017-06-24T07:45:59.842Z,20.73
2017-06-24T07:46:59.238Z,20.75
2017-06-24T07:47:57.246Z,20.75
2017-06-24T07:48:53.566Z,20.75
2017-06-24T07:49:49.894Z,20.77
2017-06-24T07:50:51.123Z,20.79
2017-06-24T07:51:47.443Z,20.79
2017-06-24T07:52:43.694Z,20.81
2017-06-24T07:53:39.978Z,20.83
2017-06-24T07:54:36.254Z,20.83
2017-06-24T07:55:32.494Z,20.83
2017-06-24T07:56:28.754Z,20.84
2017-06-24T07:57:24.993Z,20.84
2017-06-24T07:58:21.250Z,20.86
2017-06-24T07:59:17.490Z,20.86
2017-06-24T08:00:13.814Z,20.87
2017-06-24T08:01:10.058Z,20.88
2017-06-24T08:02:06.303Z,20.90
2017-06-24T08:03:02.546Z,20.91
2017-06-24T08:03:58.793Z,20.93
2017-06-24T08:04:55.170Z,20.96
2017-06-24T08:05:51.422Z,20.98
2017-06-24T08:06:47.674Z,21.00
2017-06-24T08:07:44.011Z,21.00
2017-06-24T08:08:40.246Z,20.96
2017-06-24T08:09:36.486Z,20.93
2017-06-24T08:10:33.014Z,20.91
2017-06-24T08:11:29.453Z,20.89
2017-06-24T08:12:26.032Z,20.88
2017-06-24T08:13:22.646Z,20.87
2017-06-24T08:14:18.890Z,20.87
2017-06-24T08:15:15.582Z,20.87
2017-06-24T08:16:12.286Z,20.86
2017-06-24T08:17:08.526Z,20.87
2017-06-24T08:18:04.803Z,20.86
2017-06-24T08:19:01.099Z,20.87
2017-06-24T08:19:57.354Z,20.87
2017-06-24T08:20:53.606Z,20.86
2017-06-24T08:21:50.326Z,20.86
2017-06-24T08:22:46.578Z,20.87
2017-06-24T08:23:42.815Z,20.87
2017-06-24T08:24:39.268Z,20.87
2017-06-24T08:25:35.502Z,20.87
2017-06-24T08:26:32.505Z,20.87
2017-06-24T08:27:28.914Z,20.86
2017-06-24T08:28:25.153Z,20.85
2017-06-24T08:29:21.407Z,20.85
2017-06-24T08:30:17.647Z,20.85
2017-06-24T08:31:13.904Z,20.86
2017-06-24T08:32:10.148Z,20.85
2017-06-24T08:33:06.402Z,20.87
2017-06-24T08:34:02.641Z,20.89
2017-06-24T08:34:59.143Z,20.90
2017-06-24T08:35:55.594Z,20.93
2017-06-24T08:36:51.834Z,20.95
2017-06-24T08:37:48.074Z,20.96
2017-06-24T08:38:44.334Z,21.00
2017-06-24T08:39:40.585Z,21.03
2017-06-24T08:40:36.826Z,21.05
2017-06-24T08:41:33.066Z,21.08
2017-06-24T08:42:29.321Z,21.09
2017-06-24T08:43:25.595Z,21.09
2017-06-24T08:44:22.314Z,21.11
2017-06-24T08:45:18.569Z,21.11
2017-06-24T08:46:14.808Z,21.12
2017-06-24T08:47:11.060Z,21.12
2017-06-24T08:48:07.310Z,21.14
2017-06-24T08:49:03.566Z,21.16
2017-06-24T08:49:59.805Z,21.19
2017-06-24T08:50:56.074Z,21.24
2017-06-24T08:51:52.317Z,21.30
2017-06-24T08:52:48.578Z,21.35
2017-06-24T08:53:44.981Z,21.40
2017-06-24T08:54:41.246Z,21.46
2017-06-24T08:55:37.486Z,21.51
2017-06-24T08:56:33.730Z,21.58
2017-06-24T08:57:29.971Z,21.63
2017-06-24T08:58:26.269Z,21.69
2017-06-24T08:59:22.513Z,21.76
2017-06-24T09:00:18.786Z,21.84
2017-06-24T09:01:15.102Z,21.90
2017-06-24T09:02:11.342Z,21.96
2017-06-24T09:03:07.586Z,22.02
2017-06-24T09:04:03.830Z,22.08
2017-06-24T09:05:00.090Z,22.14
2017-06-24T09:05:56.346Z,22.19
2017-06-24T09:06:52.593Z,22.24
2017-06-24T09:07:48.846Z,22.32
2017-06-24T09:08:45.153Z,22.41
2017-06-24T09:09:41.427Z,22.49
2017-06-24T09:10:37.890Z,22.60
2017-06-24T09:11:34.139Z,22.69
2017-06-24T09:12:30.386Z,22.74
2017-06-24T09:13:26.630Z,22.79
2017-06-24T09:14:22.873Z,22.84
2017-06-24T09:15:19.198Z,22.90
2017-06-24T09:16:15.458Z,22.97
2017-06-24T09:17:11.820Z,23.07
2017-06-24T09:18:08.153Z,23.19
2017-06-24T09:19:04.398Z,23.31
2017-06-24T09:20:00.849Z,23.41
2017-06-24T09:20:57.362Z,23.53
2017-06-24T09:21:53.606Z,23.63
2017-06-24T09:22:49.978Z,23.73
2017-06-24T09:23:46.365Z,23.87
2017-06-24T09:24:42.829Z,23.99
2017-06-24T09:25:39.080Z,24.08
2017-06-24T09:26:35.590Z,24.15
2017-06-24T09:27:31.842Z,24.23
2017-06-24T09:28:28.146Z,24.28
2017-06-24T09:29:24.465Z,24.34
2017-06-24T09:30:20.968Z,24.36
2017-06-24T09:31:17.210Z,24.37
2017-06-24T09:32:13.475Z,24.35
2017-06-24T09:33:09.714Z,24.35
2017-06-24T09:34:06.177Z,24.41
2017-06-24T09:35:02.555Z,24.46
2017-06-24T09:35:58.982Z,24.51
2017-06-24T09:36:55.458Z,24.57
2017-06-24T09:37:52.060Z,24.60
2017-06-24T09:38:48.626Z,24.63
2017-06-24T09:39:45.026Z,24.69
2017-06-24T09:40:41.270Z,24.74
2017-06-24T09:41:37.599Z,24.81
2017-06-24T09:42:33.849Z,24.89
2017-06-24T09:43:30.223Z,24.98
2017-06-24T09:44:26.477Z,25.06
2017-06-24T09:45:22.748Z,25.16
2017-06-24T09:46:19.191Z,25.22
2017-06-24T09:47:15.494Z,25.30
2017-06-24T09:48:11.726Z,25.40
2017-06-24T09:49:08.101Z,25.46
2017-06-24T09:50:04.615Z,25.52
2017-06-24T09:51:01.116Z,25.54
2017-06-24T09:51:57.544Z,25.55
2017-06-24T09:52:53.962Z,25.56
2017-06-24T09:53:50.220Z,25.60
2017-06-24T09:54:46.669Z,25.66
2017-06-24T09:55:42.964Z,25.74
2017-06-24T09:56:39.216Z,25.83
2017-06-24T09:57:35.844Z,25.92
2017-06-24T09:58:32.302Z,26.02
2017-06-24T09:59:28.924Z,26.12
2017-06-24T10:00:25.473Z,26.20
2017-06-24T10:01:21.726Z,26.27
2017-06-24T10:02:17.986Z,26.34
2017-06-24T10:03:14.246Z,26.38
2017-06-24T10:04:10.498Z,26.43
2017-06-24T10:05:06.742Z,26.46
2017-06-24T10:06:03.001Z,26.49
2017-06-24T10:06:59.354Z,26.51
2017-06-24T10:07:55.598Z,26.54
2017-06-24T10:08:51.838Z,26.58
2017-06-24T10:09:48.099Z,26.65
2017-06-24T10:10:44.375Z,26.70
2017-06-24T10:11:40.646Z,26.76
2017-06-24T10:12:36.889Z,26.81
2017-06-24T10:13:33.157Z,26.85
2017-06-24T10:14:29.410Z,26.90
2017-06-24T10:15:25.665Z,26.94
2017-06-24T10:16:21.926Z,26.99
2017-06-24T10:17:18.163Z,27.01
2017-06-24T10:18:14.410Z,27.03
2017-06-24T10:19:10.658Z,27.02
2017-06-24T10:20:06.913Z,27.02
2017-06-24T10:21:03.150Z,27.04
2017-06-24T10:21:59.401Z,27.03
2017-06-24T10:22:55.666Z,27.04
2017-06-24T10:23:51.978Z,27.07
2017-06-24T10:24:48.226Z,27.08
2017-06-24T10:25:44.454Z,27.08
2017-06-24T10:26:40.746Z,27.09
2017-06-24T10:27:37.046Z,27.09
2017-06-24T10:28:33.289Z,27.10
2017-06-24T10:29:29.555Z,27.11
2017-06-24T10:30:25.847Z,27.10
2017-06-24T10:31:22.095Z,27.07
2017-06-24T10:32:18.343Z,27.03
2017-06-24T10:33:14.627Z,27.00
2017-06-24T10:34:10.884Z,26.97
2017-06-24T10:35:07.191Z,26.95
2017-06-24T10:36:03.443Z,26.95
2017-06-24T10:36:59.698Z,26.94
2017-06-24T10:37:55.982Z,26.92
2017-06-24T10:38:52.238Z,26.91
2017-06-24T10:39:48.498Z,26.93
2017-06-24T10:40:44.735Z,26.94
2017-06-24T10:41:40.990Z,26.95
2017-06-24T10:42:37.251Z,26.93
2017-06-24T10:43:33.530Z,26.94
2017-06-24T10:44:29.774Z,26.97
2017-06-24T10:45:26.023Z,26.97
2017-06-24T10:46:22.275Z,26.99
2017-06-24T10:47:18.515Z,27.02
2017-06-24T10:48:14.754Z,27.05
2017-06-24T10:49:11.019Z,27.07
2017-06-24T10:50:07.267Z,27.09
2017-06-24T10:51:03.514Z,27.09
2017-06-24T10:51:59.759Z,27.07
2017-06-24T10:52:56.022Z,27.07
2017-06-24T10:53:52.298Z,27.08
2017-06-24T10:54:48.563Z,27.11
2017-06-24T10:55:44.806Z,27.11
2017-06-24T10:56:41.070Z,27.15
2017-06-24T10:57:37.316Z,27.20
2017-06-24T10:58:33.587Z,27.24
2017-06-24T10:59:29.918Z,27.30
2017-06-24T11:00:26.174Z,27.34
2017-06-24T11:01:22.426Z,27.38
2017-06-24T11:02:18.684Z,27.42
2017-06-24T11:03:14.934Z,27.45
2017-06-24T11:04:11.195Z,27.48
2017-06-24T11:05:07.482Z,27.51
2017-06-24T11:06:03.741Z,27.56
2017-06-24T11:06:59.998Z,27.58
2017-06-24T11:07:56.258Z,27.61
2017-06-24T11:08:52.510Z,27.63
2017-06-24T11:09:48.767Z,27.64
2017-06-24T11:10:45.026Z,27.65
2017-06-24T11:11:41.271Z,27.68
2017-06-24T11:12:37.515Z,27.70
2017-06-24T11:13:33.770Z,27.73
2017-06-24T11:14:30.023Z,27.74
2017-06-24T11:15:26.306Z,27.75
2017-06-24T11:16:22.566Z,27.75
2017-06-24T11:17:18.838Z,27.74
2017-06-24T11:18:15.118Z,27.75
2017-06-24T11:19:11.378Z,27.75
2017-06-24T11:20:07.623Z,27.77
2017-06-24T11:21:03.920Z,27.81
2017-06-24T11:22:00.183Z,27.82
2017-06-24T11:22:56.427Z,27.85
2017-06-24T11:23:52.670Z,27.87
2017-06-24T11:24:48.930Z,27.87
2017-06-24T11:25:45.195Z,27.87
2017-06-24T11:26:41.454Z,27.90
2017-06-24T11:27:37.718Z,27.93
2017-06-24T11:28:33.971Z,27.96
2017-06-24T11:29:30.230Z,28.02
2017-06-24T11:30:26.507Z,28.08
2017-06-24T11:31:22.748Z,28.11
2017-06-24T11:32:19.020Z,28.14
2017-06-24T11:33:15.284Z,28.14
2017-06-24T11:34:11.542Z,28.16
2017-06-24T11:35:07.819Z,28.19
2017-06-24T11:36:04.091Z,28.21
2017-06-24T11:37:00.366Z,28.20
2017-06-24T11:37:56.630Z,28.18
2017-06-24T11:38:52.890Z,28.16
2017-06-24T11:39:49.173Z,28.14
2017-06-24T11:40:45.427Z,28.11
2017-06-24T11:41:41.670Z,28.08
2017-06-24T11:42:37.934Z,28.08
2017-06-24T11:43:34.196Z,28.07
2017-06-24T11:44:30.446Z,28.10
2017-06-24T11:45:26.707Z,28.14
2017-06-24T11:46:22.962Z,28.16
2017-06-24T11:47:19.259Z,28.17
2017-06-24T11:48:15.529Z,28.18
2017-06-24T11:49:11.806Z,28.18
2017-06-24T11:50:08.090Z,28.21
2017-06-24T11:51:04.339Z,28.23
2017-06-24T11:52:00.599Z,28.27
2017-06-24T11:52:56.882Z,28.31
2017-06-24T11:53:53.149Z,28.35
2017-06-24T11:54:49.415Z,28.42
2017-06-24T11:55:45.675Z,28.45
2017-06-24T11:56:41.943Z,28.49
2017-06-24T11:57:38.198Z,28.52
2017-06-24T11:58:34.470Z,28.55
2017-06-24T11:59:30.730Z,28.58
2017-06-24T12:00:26.970Z,28.59
2017-06-24T12:01:23.242Z,28.61
2017-06-24T12:02:19.501Z,28.64
2017-06-24T12:03:15.774Z,28.67
2017-06-24T12:04:12.036Z,28.70
2017-06-24T12:05:08.295Z,28.73